Time;durP1;ratioP1;P1;durP2;ratioP2;P2;SDS_P1;SDS_P2;PMS_P1;PMS_P2;Temp;Humidity;BMP_temperature;BMP_pressure;BME280_temperature;BME280_humidity;BME280_pressure;Samples;Min_cycle;Max_cycle;Signal;HPM_P1;HPM_P2
2022/10/16 00:01:25;;;;;;;7.32;2.80;;;14.50;83.00;;;;;;5012036;28;20109;-65
2022/10/16 00:03:52;;;;;;;5.85;2.60;;;14.50;82.90;;;;;;5027460;28;20412;-65
2022/10/16 00:06:19;;;;;;;6.60;2.50;;;14.50;82.90;;;;;;5016692;28;20030;-66
2022/10/16 00:08:46;;;;;;;10.40;3.25;;;14.50;82.90;;;;;;5015169;28;20030;-65
2022/10/16 00:11:20;;;;;;;5.03;2.17;;;14.50;82.90;;;;;;5015809;28;20137;-65
2022/10/16 00:13:47;;;;;;;6.50;2.60;;;14.50;82.70;;;;;;5014954;28;20378;-66
2022/10/16 00:16:14;;;;;;;7.75;2.80;;;14.50;82.60;;;;;;5014368;28;20048;-65
2022/10/16 00:18:40;;;;;;;6.53;2.60;;;14.50;82.60;;;;;;5014880;28;20085;-65
2022/10/16 00:21:09;;;;;;;10.13;3.25;;;14.50;82.60;;;;;;5015911;28;20372;-65
2022/10/16 00:23:35;;;;;;;10.30;3.22;;;14.50;82.60;;;;;;5016533;28;20022;-65
2022/10/16 00:26:04;;;;;;;7.18;3.05;;;14.50;82.60;;;;;;5016314;28;20363;-66
2022/10/16 00:28:30;;;;;;;6.22;2.80;;;14.50;82.60;;;;;;5013537;28;20038;-65
2022/10/16 00:30:55;;;;;;;7.18;2.50;;;14.50;82.60;;;;;;5028593;28;20038;-65
2022/10/16 00:33:21;;;;;;;6.85;2.72;;;14.60;82.70;;;;;;5014312;28;20481;-65
2022/10/16 00:35:48;;;;;;;7.40;3.38;;;14.60;82.70;;;;;;5014974;28;20033;-65
2022/10/16 00:38:14;;;;;;;7.70;2.97;;;14.50;82.60;;;;;;5015067;28;20439;-65
2022/10/16 00:40:40;;;;;;;7.32;3.10;;;14.60;82.70;;;;;;5015883;28;20053;-66
2022/10/16 00:43:13;;;;;;;9.32;3.33;;;14.50;82.60;;;;;;5013846;28;20065;-66
2022/10/16 00:45:39;;;;;;;7.82;3.05;;;14.60;82.70;;;;;;5015668;28;20026;-65
2022/10/16 00:48:12;;;;;;;7.85;3.20;;;14.50;82.60;;;;;;5014378;28;20037;-65
2022/10/16 00:50:38;;;;;;;8.90;3.35;;;14.50;82.70;;;;;;5014532;28;20439;-66
2022/10/16 00:53:04;;;;;;;6.57;2.67;;;14.50;82.70;;;;;;5015635;28;20041;-65
2022/10/16 00:55:30;;;;;;;7.95;2.85;;;14.50;82.80;;;;;;5027858;28;20038;-66
2022/10/16 00:57:57;;;;;;;5.85;2.78;;;14.50;82.80;;;;;;5014574;28;20029;-66
2022/10/16 01:00:26;;;;;;;6.47;3.13;;;14.50;82.90;;;;;;5014184;28;20034;-66
2022/10/16 01:02:57;;;;;;;8.40;3.40;;;14.50;82.90;;;;;;5014404;28;20096;-65
2022/10/16 01:05:26;;;;;;;8.35;3.40;;;14.50;83.00;;;;;;5022043;28;20036;-66
2022/10/16 01:08:09;;;;;;;6.68;3.13;;;14.50;83.00;;;;;;5014897;28;20399;-65
2022/10/16 01:10:40;;;;;;;6.53;2.92;;;14.50;83.10;;;;;;5016169;28;20022;-65
2022/10/16 01:13:11;;;;;;;7.57;3.03;;;14.50;83.10;;;;;;5014479;28;20049;-65
2022/10/16 01:15:52;;;;;;;7.43;3.60;;;14.40;83.10;;;;;;5012681;28;20038;-65
2022/10/16 01:18:38;;;;;;;8.63;3.50;;;14.40;83.10;;;;;;5014311;28;20022;-65
2022/10/16 01:21:09;;;;;;;7.80;3.00;;;14.40;83.10;;;;;;5015459;28;20026;-66
2022/10/16 01:24:12;;;;;;;7.40;3.55;;;14.40;83.20;;;;;;5015068;28;20123;-65
2022/10/16 01:26:57;;;;;;;6.60;3.00;;;14.40;83.10;;;;;;5007024;28;20408;-65
2022/10/16 01:29:32;;;;;;;5.38;2.90;;;14.40;83.20;;;;;;5015727;28;20026;-65
2022/10/16 01:32:05;;;;;;;6.65;3.25;;;14.40;83.30;;;;;;5016154;28;20087;-65
2022/10/16 01:34:45;;;;;;;8.07;3.05;;;14.40;83.30;;;;;;5014974;28;20034;-66
2022/10/16 01:37:20;;;;;;;6.30;3.13;;;14.40;83.30;;;;;;5014366;28;20088;-65
2022/10/16 01:39:48;;;;;;;6.90;3.30;;;14.50;83.40;;;;;;5013307;28;20030;-65
2022/10/16 01:42:30;;;;;;;6.90;2.67;;;14.40;83.40;;;;;;5015620;28;20030;-65
2022/10/16 01:44:58;;;;;;;8.38;3.13;;;14.40;83.40;;;;;;5014045;28;20029;-65
2022/10/16 01:47:26;;;;;;;6.57;3.20;;;14.40;83.50;;;;;;5014359;28;20426;-65
2022/10/16 01:49:53;;;;;;;6.43;3.28;;;14.40;83.50;;;;;;5015886;28;20029;-65
2022/10/16 01:52:23;;;;;;;6.45;2.60;;;14.50;83.60;;;;;;5014892;28;20442;-66
2022/10/16 01:54:52;;;;;;;5.80;2.70;;;14.40;83.60;;;;;;5016221;28;20029;-66
2022/10/16 01:57:20;;;;;;;6.13;2.78;;;14.50;83.70;;;;;;5016032;28;20141;-65
2022/10/16 01:59:51;;;;;;;6.13;3.05;;;14.50;83.70;;;;;;5014611;28;20084;-65
2022/10/16 02:02:20;;;;;;;8.27;3.28;;;14.50;83.70;;;;;;5017078;28;20026;-65
2022/10/16 02:04:59;;;;;;;6.75;2.88;;;14.50;83.80;;;;;;5014484;28;20030;-65
2022/10/16 02:07:24;;;;;;;5.75;2.67;;;14.50;83.70;;;;;;5015995;28;20034;-66
2022/10/16 02:09:50;;;;;;;7.18;3.10;;;14.50;83.70;;;;;;5014622;28;20084;-65
2022/10/16 02:12:27;;;;;;;7.25;3.15;;;14.50;83.60;;;;;;5015739;28;20037;-65
2022/10/16 02:14:53;;;;;;;7.28;3.03;;;14.50;83.60;;;;;;5014019;28;20380;-65
2022/10/16 02:17:20;;;;;;;10.45;2.78;;;14.50;83.60;;;;;;5015800;28;20022;-65
2022/10/16 02:19:47;;;;;;;5.50;2.90;;;14.50;83.70;;;;;;5014735;28;20427;-65
2022/10/16 02:22:31;;;;;;;6.03;2.58;;;14.50;83.70;;;;;;5014044;28;20030;-65
2022/10/16 02:25:08;;;;;;;5.20;2.60;;;14.50;83.80;;;;;;5012121;28;20069;-66
2022/10/16 02:28:03;;;;;;;5.93;2.78;;;14.50;83.80;;;;;;4996723;28;20045;-65
2022/10/16 02:30:44;;;;;;;6.85;3.08;;;14.50;83.70;;;;;;5010913;28;20030;-66
2022/10/16 02:33:13;;;;;;;6.80;2.85;;;14.50;83.70;;;;;;5011486;28;20437;-65
2022/10/16 02:35:40;;;;;;;6.00;2.42;;;14.60;83.80;;;;;;5013820;28;20030;-65
2022/10/16 02:38:08;;;;;;;4.50;2.08;;;14.60;83.80;;;;;;5013789;28;20108;-65
2022/10/16 02:40:34;;;;;;;7.82;2.42;;;14.60;83.80;;;;;;5013258;28;20029;-65
2022/10/16 02:43:00;;;;;;;5.50;2.58;;;14.60;83.80;;;;;;5012920;28;20457;-65
2022/10/16 02:45:25;;;;;;;5.57;2.22;;;14.60;83.80;;;;;;5011626;28;20022;-66
2022/10/16 02:47:51;;;;;;;6.30;2.65;;;14.60;83.80;;;;;;5013606;28;20042;-66
2022/10/16 02:50:17;;;;;;;5.05;2.42;;;14.60;83.80;;;;;;5013107;28;20683;-65
2022/10/16 02:52:43;;;;;;;6.70;2.65;;;14.60;83.80;;;;;;5013835;28;20034;-66
2022/10/16 02:55:08;;;;;;;6.32;2.63;;;14.60;83.80;;;;;;5012790;28;20030;-65
2022/10/16 02:57:36;;;;;;;5.90;2.63;;;14.60;83.80;;;;;;5012603;28;20022;-66
2022/10/16 03:00:04;;;;;;;6.18;2.47;;;14.60;83.80;;;;;;5013398;28;20062;-65
2022/10/16 03:02:29;;;;;;;6.88;2.30;;;14.50;83.80;;;;;;5011886;28;20033;-65
2022/10/16 03:04:55;;;;;;;5.45;2.30;;;14.50;83.90;;;;;;5009491;28;20038;-65
2022/10/16 03:07:20;;;;;;;5.20;2.30;;;14.50;83.90;;;;;;5013912;28;20034;-66
2022/10/16 03:09:46;;;;;;;5.03;1.90;;;14.50;84.00;;;;;;5015450;28;20044;-66
2022/10/16 03:12:12;;;;;;;5.00;2.08;;;14.50;84.10;;;;;;5015919;28;20028;-65
2022/10/16 03:14:39;;;;;;;6.25;2.72;;;14.50;84.10;;;;;;5027794;28;20096;-65
2022/10/16 03:17:05;;;;;;;6.57;2.15;;;14.50;84.10;;;;;;5015860;28;20413;-65
2022/10/16 03:19:31;;;;;;;5.40;2.17;;;14.50;84.00;;;;;;5014055;28;20026;-65
2022/10/16 03:21:57;;;;;;;6.00;2.38;;;14.50;84.10;;;;;;5013760;28;20021;-65
2022/10/16 03:24:22;;;;;;;6.18;2.33;;;14.50;84.00;;;;;;5011936;28;20022;-66
2022/10/16 03:26:48;;;;;;;4.90;2.20;;;14.50;84.00;;;;;;5012543;28;20433;-65
2022/10/16 03:29:14;;;;;;;6.30;2.20;;;14.50;84.10;;;;;;5011762;28;20052;-65
2022/10/16 03:31:39;;;;;;;5.90;2.25;;;14.50;84.10;;;;;;5011911;28;20310;-66
2022/10/16 03:34:05;;;;;;;7.53;2.42;;;14.50;84.10;;;;;;5014248;28;20390;-66
2022/10/16 03:36:31;;;;;;;5.25;1.92;;;14.50;84.10;;;;;;5011322;28;20042;-65
2022/10/16 03:38:56;;;;;;;5.60;2.60;;;14.50;84.10;;;;;;5011381;28;20022;-66
2022/10/16 03:41:22;;;;;;;6.95;2.88;;;14.50;84.20;;;;;;5012771;28;20026;-66
2022/10/16 03:43:47;;;;;;;6.03;2.80;;;14.50;84.20;;;;;;5012243;28;20022;-65
2022/10/16 03:46:13;;;;;;;6.25;2.90;;;14.40;84.10;;;;;;5012316;28;20030;-66
2022/10/16 03:48:39;;;;;;;6.45;3.13;;;14.50;84.30;;;;;;4995523;28;20038;-65
2022/10/16 03:51:05;;;;;;;7.30;2.95;;;14.50;84.30;;;;;;5012397;28;20421;-66
2022/10/16 03:53:31;;;;;;;6.72;2.95;;;14.50;84.20;;;;;;5012219;28;20026;-66
2022/10/16 03:55:57;;;;;;;6.47;2.60;;;14.50;84.20;;;;;;5011267;28;20029;-65
2022/10/16 03:58:22;;;;;;;7.55;2.78;;;14.50;84.20;;;;;;5014165;28;20555;-66
2022/10/16 04:00:48;;;;;;;5.68;2.65;;;14.50;84.20;;;;;;5025718;28;20034;-65
2022/10/16 04:03:14;;;;;;;4.35;2.15;;;14.50;84.10;;;;;;5015656;28;20022;-65
2022/10/16 04:05:40;;;;;;;5.00;2.20;;;14.50;84.10;;;;;;5015543;28;20017;-66
2022/10/16 04:08:05;;;;;;;6.75;2.38;;;14.50;84.10;;;;;;5010893;28;20112;-66
2022/10/16 04:10:31;;;;;;;5.13;2.30;;;14.50;84.10;;;;;;5012625;28;20041;-66
2022/10/16 04:12:56;;;;;;;5.57;2.53;;;14.50;84.10;;;;;;5011328;28;20435;-65
2022/10/16 04:15:23;;;;;;;5.18;2.20;;;14.50;84.10;;;;;;5010151;28;20048;-65
2022/10/16 04:17:49;;;;;;;5.13;2.00;;;14.40;84.10;;;;;;5011534;28;20038;-65
2022/10/16 04:20:15;;;;;;;5.85;2.42;;;14.50;84.10;;;;;;5007181;28;20403;-65
2022/10/16 04:22:40;;;;;;;4.15;1.92;;;14.50;84.20;;;;;;5003351;28;20021;-66
2022/10/16 04:25:06;;;;;;;4.65;1.92;;;14.50;84.10;;;;;;4992433;28;20045;-66
2022/10/16 04:27:32;;;;;;;4.28;1.80;;;14.50;84.10;;;;;;5004219;28;20027;-66
2022/10/16 04:29:59;;;;;;;6.13;2.00;;;14.50;84.10;;;;;;5004133;28;20104;-66
2022/10/16 04:32:25;;;;;;;4.93;2.20;;;14.50;84.70;;;;;;5005665;28;20049;-65
2022/10/16 04:34:50;;;;;;;4.65;2.00;;;14.50;84.10;;;;;;5005720;28;20030;-66
2022/10/16 04:37:16;;;;;;;5.63;2.10;;;14.50;84.10;;;;;;5011066;28;20036;-66
2022/10/16 04:39:42;;;;;;;5.07;2.03;;;14.50;84.10;;;;;;5011503;28;20032;-66
2022/10/16 04:42:07;;;;;;;4.38;2.17;;;14.50;84.10;;;;;;5011957;28;20022;-66
2022/10/16 04:44:34;;;;;;;4.88;1.92;;;14.50;84.00;;;;;;5014484;28;20101;-65
2022/10/16 04:46:59;;;;;;;5.88;1.77;;;14.60;84.10;;;;;;5022633;28;20117;-65
2022/10/16 04:49:25;;;;;;;4.30;1.77;;;14.50;84.00;;;;;;5012466;28;20092;-65
2022/10/16 04:51:51;;;;;;;4.70;2.08;;;14.50;84.00;;;;;;5014457;28;20092;-65
2022/10/16 04:54:16;;;;;;;5.35;2.10;;;14.50;84.00;;;;;;5017086;28;20040;-66
2022/10/16 04:56:46;;;;;;;5.28;2.13;;;14.50;84.00;;;;;;5014235;28;20025;-66
2022/10/16 04:59:16;;;;;;;5.30;1.83;;;14.50;84.10;;;;;;5014639;28;20034;-65
2022/10/16 05:01:42;;;;;;;5.72;2.15;;;14.50;84.10;;;;;;5014978;28;20457;-65
2022/10/16 05:04:08;;;;;;;4.32;1.83;;;14.50;84.10;;;;;;5014178;28;20029;-66
2022/10/16 05:06:33;;;;;;;5.18;2.00;;;14.50;84.10;;;;;;5030367;28;20037;-65
2022/10/16 05:08:59;;;;;;;5.95;2.00;;;14.50;84.20;;;;;;5015458;28;20088;-65
2022/10/16 05:11:24;;;;;;;4.78;2.05;;;14.50;84.10;;;;;;5031883;28;20107;-65
2022/10/16 05:13:50;;;;;;;6.18;2.10;;;14.50;84.20;;;;;;5015064;28;20072;-65
2022/10/16 05:16:16;;;;;;;4.30;1.80;;;14.50;84.20;;;;;;5016557;28;20034;-66
2022/10/16 05:18:41;;;;;;;5.10;2.00;;;14.50;84.20;;;;;;5017212;28;20346;-66
2022/10/16 05:21:07;;;;;;;4.78;2.08;;;14.50;84.10;;;;;;5013910;28;20477;-65
2022/10/16 05:23:33;;;;;;;4.88;1.83;;;14.50;84.20;;;;;;5014008;28;20080;-66
2022/10/16 05:25:59;;;;;;;4.10;1.80;;;14.50;84.20;;;;;;5017274;28;20033;-66
2022/10/16 05:28:27;;;;;;;5.22;2.13;;;14.40;84.10;;;;;;5014187;28;20087;-66
2022/10/16 05:30:52;;;;;;;4.15;2.17;;;14.40;84.20;;;;;;5015610;28;20022;-66
2022/10/16 05:33:21;;;;;;;4.50;2.00;;;14.40;84.30;;;;;;5017503;28;20414;-66
2022/10/16 05:35:46;;;;;;;5.22;1.85;;;14.30;84.20;;;;;;5016206;28;20473;-66
2022/10/16 05:38:12;;;;;;;5.47;2.03;;;14.30;84.30;;;;;;5014312;28;20030;-66
2022/10/16 05:40:37;;;;;;;5.10;2.08;;;14.30;84.30;;;;;;5016130;28;20443;-66
2022/10/16 05:43:03;;;;;;;5.80;2.20;;;14.30;84.40;;;;;;4996429;28;20026;-66
2022/10/16 05:45:29;;;;;;;5.30;2.30;;;14.30;84.40;;;;;;5032232;28;20106;-66
2022/10/16 05:47:55;;;;;;;4.90;1.77;;;14.20;84.30;;;;;;5018988;28;20040;-65
2022/10/16 05:50:20;;;;;;;5.53;2.25;;;14.30;84.40;;;;;;5025021;28;20022;-66
2022/10/16 05:52:46;;;;;;;4.18;2.00;;;14.30;84.50;;;;;;5029164;28;20023;-66
2022/10/16 05:55:11;;;;;;;4.22;2.05;;;14.20;84.40;;;;;;5033423;28;20021;-66
2022/10/16 05:57:37;;;;;;;5.40;2.20;;;14.20;84.40;;;;;;5035656;28;20112;-66
2022/10/16 06:00:04;;;;;;;6.10;2.30;;;14.20;84.40;;;;;;5018437;28;20435;-66
2022/10/16 06:02:38;;;;;;;4.93;2.10;;;14.20;84.40;;;;;;5016005;28;20034;-66
2022/10/16 06:05:04;;;;;;;5.57;2.67;;;14.20;84.40;;;;;;5023828;28;20018;-66
2022/10/16 06:07:35;;;;;;;6.00;2.33;;;14.20;84.40;;;;;;5018106;28;20037;-66
2022/10/16 06:10:01;;;;;;;5.70;2.30;;;14.20;84.40;;;;;;5028578;28;20052;-66
2022/10/16 06:12:27;;;;;;;5.65;2.10;;;14.20;84.50;;;;;;5029271;28;20037;-65
2022/10/16 06:14:52;;;;;;;6.20;2.20;;;14.20;84.40;;;;;;5013468;28;20037;-66
2022/10/16 06:17:18;;;;;;;5.57;2.53;;;14.20;84.40;;;;;;5029245;28;20065;-66
2022/10/16 06:19:44;;;;;;;5.50;2.00;;;14.20;84.50;;;;;;5026824;28;20033;-66
2022/10/16 06:22:09;;;;;;;5.63;2.25;;;14.20;84.50;;;;;;5033793;28;20026;-66
2022/10/16 06:24:35;;;;;;;4.90;2.20;;;14.20;84.50;;;;;;5019244;28;20046;-66
2022/10/16 06:27:02;;;;;;;7.47;2.17;;;14.10;84.50;;;;;;5013774;28;20109;-66
2022/10/16 06:29:28;;;;;;;6.32;2.67;;;14.20;84.60;;;;;;5015138;28;20160;-66
2022/10/16 06:31:53;;;;;;;6.45;2.40;;;14.20;84.60;;;;;;5014605;28;20034;-66
2022/10/16 06:34:19;;;;;;;7.03;2.00;;;14.20;84.60;;;;;;5013840;28;20030;-66
2022/10/16 06:36:44;;;;;;;4.82;2.13;;;14.20;84.60;;;;;;5015000;28;20022;-66
2022/10/16 06:39:10;;;;;;;4.30;1.90;;;14.20;84.60;;;;;;5016719;28;20060;-67
2022/10/16 06:41:36;;;;;;;5.95;2.13;;;14.30;84.60;;;;;;5015404;28;20422;-67
2022/10/16 06:44:14;;;;;;;4.80;2.17;;;14.30;84.60;;;;;;5008835;28;20076;-67
2022/10/16 06:46:39;;;;;;;6.10;2.40;;;14.30;84.50;;;;;;5013475;28;20030;-67
2022/10/16 06:49:05;;;;;;;6.82;2.40;;;14.40;84.50;;;;;;5016448;28;20406;-67
2022/10/16 06:51:33;;;;;;;5.13;1.90;;;14.50;84.50;;;;;;5014480;28;20367;-67
2022/10/16 06:53:59;;;;;;;5.50;2.10;;;14.50;84.40;;;;;;5013237;28;20466;-67
2022/10/16 06:56:27;;;;;;;5.28;2.22;;;14.50;84.30;;;;;;5013976;28;20034;-67
2022/10/16 06:58:54;;;;;;;6.45;2.28;;;14.50;84.30;;;;;;5012916;28;20113;-67
2022/10/16 07:01:21;;;;;;;5.30;2.42;;;14.60;84.30;;;;;;5015873;28;20045;-67
2022/10/16 07:03:47;;;;;;;6.45;2.20;;;14.60;84.30;;;;;;5013133;28;20056;-67
2022/10/16 07:06:16;;;;;;;6.65;2.22;;;14.60;84.20;;;;;;5007360;28;20050;-66
2022/10/16 07:08:43;;;;;;;5.55;2.40;;;14.70;84.30;;;;;;5018448;28;20030;-66
2022/10/16 07:11:15;;;;;;;4.45;2.10;;;14.70;84.30;;;;;;5015719;28;20026;-67
2022/10/16 07:13:42;;;;;;;5.68;2.08;;;14.70;84.20;;;;;;5013120;28;20057;-68
2022/10/16 07:16:11;;;;;;;4.55;2.20;;;14.80;84.20;;;;;;5013941;28;20050;-66
2022/10/16 07:18:38;;;;;;;5.93;2.50;;;14.80;84.10;;;;;;5014685;28;20034;-67
2022/10/16 07:21:22;;;;;;;7.60;2.50;;;14.90;84.20;;;;;;5010090;28;20045;-67
2022/10/16 07:23:57;;;;;;;5.88;2.40;;;14.90;84.00;;;;;;5012244;28;20465;-67
2022/10/16 07:26:23;;;;;;;5.68;2.10;;;14.90;84.00;;;;;;5011628;28;20041;-67
2022/10/16 07:28:50;;;;;;;5.50;2.20;;;14.90;84.00;;;;;;5012570;28;20068;-67
2022/10/16 07:31:16;;;;;;;4.75;2.05;;;15.00;84.00;;;;;;5013367;28;20060;-67
2022/10/16 07:33:44;;;;;;;5.60;2.20;;;15.00;83.90;;;;;;5017108;28;20430;-67
2022/10/16 07:36:10;;;;;;;8.10;2.40;;;15.00;83.80;;;;;;5028337;28;20037;-66
2022/10/16 07:38:36;;;;;;;6.35;2.40;;;15.00;83.80;;;;;;5015261;28;20034;-66
2022/10/16 07:41:04;;;;;;;6.93;2.40;;;15.10;83.80;;;;;;4998528;28;20459;-65
2022/10/16 07:43:30;;;;;;;7.15;2.42;;;15.20;83.70;;;;;;5030677;28;20110;-65
2022/10/16 07:45:57;;;;;;;6.65;2.30;;;15.30;83.50;;;;;;5012175;28;20113;-65
2022/10/16 07:48:24;;;;;;;5.90;2.47;;;15.30;83.30;;;;;;5030278;28;20054;-65
2022/10/16 07:50:50;;;;;;;8.50;2.72;;;15.30;83.20;;;;;;5026980;28;20497;-66
2022/10/16 07:53:16;;;;;;;4.55;2.03;;;15.40;83.10;;;;;;5027821;28;20034;-66
2022/10/16 07:55:41;;;;;;;4.78;1.95;;;15.50;83.20;;;;;;5025879;28;20030;-65
2022/10/16 07:58:07;;;;;;;4.82;1.95;;;15.50;83.00;;;;;;5025793;28;20022;-65
2022/10/16 08:00:33;;;;;;;4.70;2.30;;;15.60;82.80;;;;;;5032728;28;20024;-65
2022/10/16 08:03:00;;;;;;;4.57;1.80;;;15.70;82.70;;;;;;5035475;28;20030;-65
2022/10/16 08:05:27;;;;;;;8.25;2.53;;;15.80;82.60;;;;;;5023124;28;20037;-66
2022/10/16 08:07:53;;;;;;;8.32;2.80;;;15.90;82.50;;;;;;5021226;28;20515;-66
2022/10/16 08:10:21;;;;;;;5.03;2.30;;;15.90;82.20;;;;;;5034117;28;20116;-66
2022/10/16 08:12:46;;;;;;;5.57;2.20;;;16.00;82.10;;;;;;5023808;28;20021;-66
2022/10/16 08:15:12;;;;;;;7.22;2.42;;;16.10;81.90;;;;;;5029033;28;20356;-67
2022/10/16 08:17:38;;;;;;;9.93;2.22;;;16.20;81.70;;;;;;5016894;28;20030;-66
2022/10/16 08:20:04;;;;;;;6.38;2.13;;;16.20;81.40;;;;;;5028835;28;20041;-66
2022/10/16 08:22:30;;;;;;;4.85;2.33;;;16.20;81.30;;;;;;5016410;28;20030;-67
2022/10/16 08:24:55;;;;;;;6.45;2.20;;;16.20;81.30;;;;;;5018823;28;20048;-67
2022/10/16 08:27:21;;;;;;;4.72;1.98;;;16.30;81.30;;;;;;5018297;28;20108;-67
2022/10/16 08:29:48;;;;;;;5.43;2.10;;;16.40;81.10;;;;;;5029265;28;20455;-67
2022/10/16 08:32:15;;;;;;;7.38;2.20;;;16.50;80.90;;;;;;5028668;28;20022;-67
2022/10/16 08:34:40;;;;;;;4.55;1.92;;;16.60;80.70;;;;;;5023463;28;20355;-67
2022/10/16 08:37:07;;;;;;;4.30;1.88;;;16.60;80.70;;;;;;5026797;28;20046;-66
2022/10/16 08:39:33;;;;;;;5.70;2.20;;;16.70;80.70;;;;;;5021152;28;20036;-66
2022/10/16 08:42:35;;;;;;;5.05;1.95;;;16.70;80.80;;;;;;5025407;28;20021;-66
2022/10/16 08:45:19;;;;;;;6.32;2.45;;;16.70;80.40;;;;;;5016725;28;20080;-66
2022/10/16 08:48:02;;;;;;;5.63;2.20;;;16.80;80.50;;;;;;5013650;28;20133;-65
2022/10/16 08:50:31;;;;;;;4.13;1.85;;;16.90;80.00;;;;;;4998575;28;20041;-65
2022/10/16 08:52:57;;;;;;;5.43;2.45;;;17.10;79.60;;;;;;5014870;28;20025;-65
2022/10/16 08:55:42;;;;;;;5.85;2.10;;;17.30;79.10;;;;;;5017026;28;20466;-65
2022/10/16 08:58:34;;;;;;;7.15;2.20;;;17.40;78.50;;;;;;5017824;28;20041;-65
2022/10/16 09:01:03;;;;;;;6.40;2.10;;;17.70;78.00;;;;;;5011687;28;20049;-65
2022/10/16 09:03:36;;;;;;;4.18;1.67;;;17.80;77.70;;;;;;5020755;28;20449;-65
2022/10/16 09:06:11;;;;;;;5.35;1.90;;;17.80;78.00;;;;;;5014881;28;20050;-65
2022/10/16 09:09:02;;;;;;;8.63;1.92;;;17.90;77.10;;;;;;5019869;28;20026;-65
2022/10/16 09:11:48;;;;;;;3.07;1.70;;;18.00;76.80;;;;;;5015710;28;20030;-65
2022/10/16 09:14:14;;;;;;;7.68;2.33;;;18.20;76.60;;;;;;5016566;28;20117;-65
2022/10/16 09:17:05;;;;;;;9.00;2.10;;;18.30;76.30;;;;;;5016678;28;20116;-65
2022/10/16 09:19:37;;;;;;;4.40;1.63;;;18.40;75.80;;;;;;5010923;28;20045;-65
2022/10/16 09:22:14;;;;;;;5.28;1.65;;;18.50;75.50;;;;;;5016177;28;20022;-65
2022/10/16 09:24:39;;;;;;;4.57;2.00;;;18.60;75.20;;;;;;5014466;28;20395;-65
2022/10/16 09:27:11;;;;;;;4.90;1.77;;;18.70;75.10;;;;;;5018552;28;20200;-65
2022/10/16 09:29:37;;;;;;;6.53;1.85;;;18.70;74.80;;;;;;5015163;28;20371;-65
2022/10/16 09:32:22;;;;;;;6.22;1.70;;;18.70;74.70;;;;;;5017037;28;20026;-65
2022/10/16 09:34:51;;;;;;;6.82;1.60;;;18.70;74.40;;;;;;5018119;28;20057;-65
2022/10/16 09:37:20;;;;;;;6.30;1.92;;;18.80;74.30;;;;;;5015984;28;20322;-65
2022/10/16 09:39:52;;;;;;;7.00;1.88;;;19.00;74.00;;;;;;5014829;28;20038;-65
2022/10/16 09:42:26;;;;;;;7.82;2.13;;;19.10;73.60;;;;;;5016428;28;20030;-66
2022/10/16 09:44:53;;;;;;;8.85;2.47;;;19.10;73.10;;;;;;5015651;28;20029;-65
2022/10/16 09:47:24;;;;;;;6.63;1.83;;;19.20;73.10;;;;;;5015500;28;20029;-65
2022/10/16 09:49:56;;;;;;;5.28;1.70;;;19.20;73.00;;;;;;5016217;28;20034;-65
2022/10/16 09:52:21;;;;;;;4.75;1.95;;;19.20;72.90;;;;;;5028179;28;20530;-65
2022/10/16 09:54:55;;;;;;;5.10;1.70;;;19.20;72.90;;;;;;5015540;28;20105;-65
2022/10/16 09:57:22;;;;;;;6.95;1.95;;;19.20;72.60;;;;;;5015910;28;20455;-65
2022/10/16 09:59:53;;;;;;;6.50;1.88;;;19.20;72.60;;;;;;5018601;28;20358;-64
2022/10/16 10:02:23;;;;;;;;;;;19.20;72.40;;;;;;5015200;28;20030;-66
2022/10/16 10:04:54;;;;;;;5.45;1.67;;;19.30;72.60;;;;;;5019443;28;19913;-65
2022/10/16 10:07:27;;;;;;;7.57;1.90;;;19.40;72.20;;;;;;5029631;28;20026;-66
2022/10/16 10:09:54;;;;;;;7.90;1.80;;;19.60;72.00;;;;;;5014409;28;20119;-66
2022/10/16 10:12:29;;;;;;;7.60;1.77;;;19.70;71.80;;;;;;5012387;28;20034;-66
2022/10/16 10:14:57;;;;;;;5.53;1.90;;;19.80;71.20;;;;;;5001554;28;20095;-66
2022/10/16 10:17:26;;;;;;;7.00;2.33;;;19.90;71.00;;;;;;5007830;28;20034;-66
2022/10/16 10:19:53;;;;;;;7.38;1.95;;;19.90;70.80;;;;;;5015216;28;20470;-65
2022/10/16 10:22:29;;;;;;;7.13;2.15;;;19.90;70.60;;;;;;5011881;28;20451;-66
2022/10/16 10:25:08;;;;;;;9.05;2.00;;;20.00;70.40;;;;;;5014492;28;20022;-66
2022/10/16 10:27:55;;;;;;;6.65;2.05;;;20.00;70.90;;;;;;5015706;28;20088;-66
2022/10/16 10:30:55;;;;;;;9.88;1.95;;;20.00;70.20;;;;;;5015556;28;20022;-66
2022/10/16 10:33:44;;;;;;;9.88;2.45;;;20.10;69.90;;;;;;5015591;28;20034;-66
2022/10/16 10:36:35;;;;;;;7.07;1.73;;;20.10;69.50;;;;;;5011426;28;20097;-66
2022/10/16 10:39:07;;;;;;;8.77;2.05;;;20.20;69.30;;;;;;5014495;28;20029;-66
2022/10/16 10:41:55;;;;;;;7.95;1.95;;;20.10;69.30;;;;;;5014473;28;20040;-65
2022/10/16 10:44:39;;;;;;;10.02;2.00;;;20.20;68.80;;;;;;5030506;28;20084;-66
2022/10/16 10:47:24;;;;;;;7.53;1.73;;;20.30;68.80;;;;;;4993232;28;20133;-66
2022/10/16 10:50:14;;;;;;;9.70;2.05;;;20.30;68.70;;;;;;5012735;28;20405;-66
2022/10/16 10:53:21;;;;;;;9.00;2.00;;;20.30;68.50;;;;;;5013791;28;20034;-65
2022/10/16 10:55:58;;;;;;;7.03;1.60;;;20.40;68.20;;;;;;5014439;28;20104;-66
2022/10/16 10:58:32;;;;;;;9.18;1.60;;;20.40;68.10;;;;;;5015366;28;20026;-66
2022/10/16 11:01:13;;;;;;;10.38;1.90;;;20.50;67.60;;;;;;5013272;28;20022;-66
2022/10/16 11:03:57;;;;;;;8.52;2.17;;;20.50;67.40;;;;;;5014117;28;20126;-66
2022/10/16 11:06:31;;;;;;;8.27;1.80;;;20.60;67.10;;;;;;5029449;28;20073;-67
2022/10/16 11:09:15;;;;;;;8.27;2.30;;;20.50;66.80;;;;;;5013767;28;20058;-66
2022/10/16 11:11:57;;;;;;;6.10;1.58;;;20.50;66.60;;;;;;5018984;28;20417;-66
2022/10/16 11:14:32;;;;;;;9.10;2.15;;;20.40;66.40;;;;;;5013095;28;20053;-66
2022/10/16 11:17:13;;;;;;;6.97;1.98;;;20.50;66.10;;;;;;5020755;28;20037;-66
2022/10/16 11:19:47;;;;;;;9.63;1.70;;;20.60;65.80;;;;;;5020732;28;20034;-66
2022/10/16 11:22:34;;;;;;;5.72;1.95;;;20.50;65.50;;;;;;5016619;28;20028;-66
2022/10/16 11:25:02;;;;;;;6.45;1.52;;;20.50;65.20;;;;;;5013033;28;20030;-66
2022/10/16 11:27:47;;;;;;;9.57;2.33;;;20.50;65.40;;;;;;5013275;28;20451;-66
2022/10/16 11:30:23;;;;;;;9.32;1.98;;;20.50;65.10;;;;;;4996082;28;20017;-66
2022/10/16 11:33:07;;;;;;;8.95;2.25;;;20.50;65.20;;;;;;5016056;28;20482;-65
2022/10/16 11:35:53;;;;;;;6.53;1.73;;;20.30;65.00;;;;;;5011923;28;20473;-65
2022/10/16 11:38:34;;;;;;;9.35;2.15;;;20.10;64.70;;;;;;5009106;28;20164;-67
2022/10/16 11:41:20;;;;;;;8.65;2.00;;;20.10;65.00;;;;;;5012141;28;20451;-66
2022/10/16 11:43:58;;;;;;;7.78;1.70;;;20.10;64.90;;;;;;5014685;28;20108;-65
2022/10/16 11:46:26;;;;;;;4.75;1.50;;;20.20;64.60;;;;;;5011639;28;20378;-65
2022/10/16 11:48:55;;;;;;;7.00;1.60;;;20.20;64.40;;;;;;5029783;28;20033;-65
2022/10/16 11:51:50;;;;;;;5.70;1.60;;;20.20;64.30;;;;;;5014633;28;20113;-65
2022/10/16 11:54:28;;;;;;;9.35;1.80;;;20.20;64.30;;;;;;5013161;28;20073;-65
2022/10/16 11:56:59;;;;;;;5.50;1.92;;;20.20;64.20;;;;;;5002776;28;20061;-65
2022/10/16 11:59:32;;;;;;;8.02;2.35;;;20.20;64.10;;;;;;5013335;28;20018;-65
2022/10/16 12:02:43;;;;;;;7.07;1.85;;;20.20;64.00;;;;;;5007009;28;20038;-65
2022/10/16 12:05:18;;;;;;;7.82;1.70;;;20.20;63.70;;;;;;5010068;28;20038;-65
2022/10/16 12:07:57;;;;;;;6.75;1.90;;;20.20;63.80;;;;;;5018130;28;20048;-65
2022/10/16 12:10:28;;;;;;;7.65;1.98;;;20.10;63.60;;;;;;5018580;28;20056;-65
2022/10/16 12:12:54;;;;;;;10.68;2.55;;;20.00;63.60;;;;;;5018096;28;20101;-65
2022/10/16 12:15:32;;;;;;;9.50;2.08;;;20.00;63.80;;;;;;5017961;28;20061;-65
2022/10/16 12:17:58;;;;;;;5.82;1.98;;;20.00;63.60;;;;;;5016960;28;20442;-65
2022/10/16 12:20:27;;;;;;;10.35;2.30;;;19.90;63.60;;;;;;5018217;28;20021;-65
2022/10/16 12:23:05;;;;;;;5.05;1.48;;;19.80;63.60;;;;;;5018668;28;20424;-65
2022/10/16 12:25:37;;;;;;;10.02;1.73;;;19.70;63.60;;;;;;5028344;28;20018;-65
2022/10/16 12:28:20;;;;;;;7.15;1.83;;;19.60;63.80;;;;;;5010949;28;20070;-65
2022/10/16 12:30:58;;;;;;;9.98;1.52;;;19.60;64.00;;;;;;5017669;28;20033;-65
2022/10/16 12:33:29;;;;;;;7.85;1.98;;;19.60;64.20;;;;;;5018001;28;20096;-65
2022/10/16 12:35:56;;;;;;;7.45;1.50;;;19.60;64.00;;;;;;5017829;28;20458;-65
2022/10/16 12:38:26;;;;;;;7.00;1.85;;;19.60;64.00;;;;;;5033349;28;20072;-65
2022/10/16 12:41:00;;;;;;;7.88;1.58;;;19.50;63.70;;;;;;5017545;28;20030;-65
2022/10/16 12:43:35;;;;;;;8.13;1.88;;;19.50;63.40;;;;;;5013322;28;20105;-65
2022/10/16 12:46:10;;;;;;;8.15;1.55;;;19.50;63.30;;;;;;5016641;28;20092;-65
2022/10/16 12:48:38;;;;;;;6.47;2.03;;;19.50;63.10;;;;;;5017144;28;20136;-65
2022/10/16 12:51:22;;;;;;;8.77;1.55;;;19.40;63.20;;;;;;5013153;28;20037;-65
2022/10/16 12:54:38;;;;;;;9.00;1.85;;;19.30;63.30;;;;;;5013916;28;20030;-65
2022/10/16 12:58:01;;;;;;;8.55;1.98;;;19.20;63.50;;;;;;4994697;28;20157;-66
2022/10/16 13:00:35;;;;;;;9.63;2.03;;;19.20;63.80;;;;;;4921360;29;20115;-66
2022/10/16 13:03:23;;;;;;;7.63;1.73;;;19.20;63.80;;;;;;4908571;29;20404;-65
2022/10/16 13:06:06;;;;;;;6.63;2.00;;;19.10;63.90;;;;;;4919121;29;20036;-66
2022/10/16 13:09:17;;;;;;;7.57;2.00;;;19.10;64.10;;;;;;4918072;29;20042;-66